sensor_id;sensor_type;location;lat;lon;timestamp;pressure;altitude;pressure_sealevel;temperature
48894;BMP280;34710;35.798;139.446;2022-11-20T00:01:30;101654.07;;;16.99
48894;BMP280;34710;35.798;139.446;2022-11-20T00:03:59;101667.64;;;16.99
48894;BMP280;34710;35.798;139.446;2022-11-20T00:06:29;101676.18;;;17.38
48894;BMP280;34710;35.798;139.446;2022-11-20T00:08:59;101676.57;;;17.72
48894;BMP280;34710;35.798;139.446;2022-11-20T00:11:30;101680.57;;;17.46
48894;BMP280;34710;35.798;139.446;2022-11-20T00:14:01;101689.16;;;16.92
48894;BMP280;34710;35.798;139.446;2022-11-20T00:16:32;101692.75;;;17.10
48894;BMP280;34710;35.798;139.446;2022-11-20T00:19:02;101684.51;;;17.17
48894;BMP280;34710;35.798;139.446;2022-11-20T00:21:31;101686.68;;;17.46
48894;BMP280;34710;35.798;139.446;2022-11-20T00:24:01;101688.79;;;17.73
48894;BMP280;34710;35.798;139.446;2022-11-20T00:26:30;101683.79;;;17.73
48894;BMP280;34710;35.798;139.446;2022-11-20T00:29:00;101681.00;;;17.54
48894;BMP280;34710;35.798;139.446;2022-11-20T00:31:30;101680.96;;;17.49
48894;BMP280;34710;35.798;139.446;2022-11-20T00:34:00;101679.41;;;17.22
48894;BMP280;34710;35.798;139.446;2022-11-20T00:36:31;101676.88;;;16.61
48894;BMP280;34710;35.798;139.446;2022-11-20T00:39:01;101667.81;;;17.12
48894;BMP280;34710;35.798;139.446;2022-11-20T00:41:30;101665.21;;;16.87
48894;BMP280;34710;35.798;139.446;2022-11-20T00:44:00;101655.05;;;17.22
48894;BMP280;34710;35.798;139.446;2022-11-20T00:46:29;101636.39;;;17.18
48894;BMP280;34710;35.798;139.446;2022-11-20T00:48:58;101627.77;;;17.45
48894;BMP280;34710;35.798;139.446;2022-11-20T00:51:28;101618.53;;;17.52
48894;BMP280;34710;35.798;139.446;2022-11-20T00:53:57;101616.62;;;17.69
48894;BMP280;34710;35.798;139.446;2022-11-20T00:56:27;101617.43;;;17.92
48894;BMP280;34710;35.798;139.446;2022-11-20T00:58:58;101619.21;;;18.21
48894;BMP280;34710;35.798;139.446;2022-11-20T01:01:28;101619.56;;;17.94
48894;BMP280;34710;35.798;139.446;2022-11-20T01:03:59;101618.85;;;18.36
48894;BMP280;34710;35.798;139.446;2022-11-20T01:06:30;101621.02;;;18.22
48894;BMP280;34710;35.798;139.446;2022-11-20T01:09:01;101623.28;;;18.17
48894;BMP280;34710;35.798;139.446;2022-11-20T01:11:33;101617.98;;;18.00
48894;BMP280;34710;35.798;139.446;2022-11-20T01:14:03;101608.53;;;18.08
48894;BMP280;34710;35.798;139.446;2022-11-20T01:16:35;101603.82;;;17.68
48894;BMP280;34710;35.798;139.446;2022-11-20T01:19:07;101597.68;;;17.62
48894;BMP280;34710;35.798;139.446;2022-11-20T01:21:41;101601.40;;;17.97
48894;BMP280;34710;35.798;139.446;2022-11-20T01:24:13;101605.39;;;17.85
48894;BMP280;34710;35.798;139.446;2022-11-20T01:26:44;101598.71;;;18.38
48894;BMP280;34710;35.798;139.446;2022-11-20T01:29:16;101596.47;;;18.57
48894;BMP280;34710;35.798;139.446;2022-11-20T01:31:46;101594.81;;;18.51
48894;BMP280;34710;35.798;139.446;2022-11-20T01:34:18;101587.54;;;18.41
48894;BMP280;34710;35.798;139.446;2022-11-20T01:36:48;101576.55;;;18.02
48894;BMP280;34710;35.798;139.446;2022-11-20T01:39:19;101575.15;;;17.96
48894;BMP280;34710;35.798;139.446;2022-11-20T01:41:50;101575.93;;;18.19
48894;BMP280;34710;35.798;139.446;2022-11-20T01:44:21;101583.93;;;17.42
48894;BMP280;34710;35.798;139.446;2022-11-20T01:46:56;101583.98;;;17.14
48894;BMP280;34710;35.798;139.446;2022-11-20T01:49:31;101578.52;;;17.49
48894;BMP280;34710;35.798;139.446;2022-11-20T01:52:07;101562.16;;;17.62
48894;BMP280;34710;35.798;139.446;2022-11-20T01:54:41;101557.48;;;18.21
48894;BMP280;34710;35.798;139.446;2022-11-20T01:57:13;101556.83;;;18.13
48894;BMP280;34710;35.798;139.446;2022-11-20T01:59:47;101559.80;;;17.93
48894;BMP280;34710;35.798;139.446;2022-11-20T02:02:18;101564.82;;;17.75
48894;BMP280;34710;35.798;139.446;2022-11-20T02:04:48;101558.03;;;17.43
48894;BMP280;34710;35.798;139.446;2022-11-20T02:07:18;101557.29;;;17.49
48894;BMP280;34710;35.798;139.446;2022-11-20T02:09:49;101559.61;;;17.67
48894;BMP280;34710;35.798;139.446;2022-11-20T02:12:18;101546.20;;;17.92
48894;BMP280;34710;35.798;139.446;2022-11-20T02:14:47;101533.47;;;17.65
48894;BMP280;34710;35.798;139.446;2022-11-20T02:17:16;101523.37;;;17.75
48894;BMP280;34710;35.798;139.446;2022-11-20T02:19:45;101519.99;;;18.38
48894;BMP280;34710;35.798;139.446;2022-11-20T02:22:18;101528.19;;;17.98
48894;BMP280;34710;35.798;139.446;2022-11-20T02:24:51;101532.02;;;17.75
48894;BMP280;34710;35.798;139.446;2022-11-20T02:27:21;101530.27;;;17.89
48894;BMP280;34710;35.798;139.446;2022-11-20T02:29:53;101522.43;;;17.94
48894;BMP280;34710;35.798;139.446;2022-11-20T02:32:27;101516.68;;;18.07
48894;BMP280;34710;35.798;139.446;2022-11-20T02:34:56;101517.01;;;17.99
48894;BMP280;34710;35.798;139.446;2022-11-20T02:37:30;101514.88;;;18.08
48894;BMP280;34710;35.798;139.446;2022-11-20T02:40:00;101511.61;;;17.68
48894;BMP280;34710;35.798;139.446;2022-11-20T02:42:29;101509.08;;;17.74
48894;BMP280;34710;35.798;139.446;2022-11-20T02:44:59;101506.49;;;17.51
48894;BMP280;34710;35.798;139.446;2022-11-20T02:47:27;101501.05;;;17.97
48894;BMP280;34710;35.798;139.446;2022-11-20T02:49:57;101495.05;;;17.64
48894;BMP280;34710;35.798;139.446;2022-11-20T02:52:26;101488.77;;;17.98
48894;BMP280;34710;35.798;139.446;2022-11-20T02:54:56;101483.05;;;17.57
48894;BMP280;34710;35.798;139.446;2022-11-20T02:57:25;101472.08;;;18.01
48894;BMP280;34710;35.798;139.446;2022-11-20T02:59:54;101460.62;;;17.54
48894;BMP280;34710;35.798;139.446;2022-11-20T03:02:23;101456.23;;;17.63
48894;BMP280;34710;35.798;139.446;2022-11-20T03:04:53;101449.34;;;17.29
48894;BMP280;34710;35.798;139.446;2022-11-20T03:07:22;101445.59;;;17.33
48894;BMP280;34710;35.798;139.446;2022-11-20T03:09:51;101446.35;;;17.52
48894;BMP280;34710;35.798;139.446;2022-11-20T03:12:20;101434.94;;;17.48
48894;BMP280;34710;35.798;139.446;2022-11-20T03:14:50;101423.42;;;17.54
48894;BMP280;34710;35.798;139.446;2022-11-20T03:17:19;101425.09;;;17.33
48894;BMP280;34710;35.798;139.446;2022-11-20T03:19:48;101426.95;;;17.77
48894;BMP280;34710;35.798;139.446;2022-11-20T03:22:18;101426.40;;;17.36
48894;BMP280;34710;35.798;139.446;2022-11-20T03:24:47;101423.56;;;17.61
48894;BMP280;34710;35.798;139.446;2022-11-20T03:27:16;101420.26;;;17.34
48894;BMP280;34710;35.798;139.446;2022-11-20T03:29:45;101415.87;;;17.33
48894;BMP280;34710;35.798;139.446;2022-11-20T03:32:14;101410.50;;;17.29
48894;BMP280;34710;35.798;139.446;2022-11-20T03:34:43;101403.84;;;17.06
48894;BMP280;34710;35.798;139.446;2022-11-20T03:37:12;101394.67;;;17.62
48894;BMP280;34710;35.798;139.446;2022-11-20T03:39:41;101389.05;;;17.39
48894;BMP280;34710;35.798;139.446;2022-11-20T03:42:10;101389.84;;;17.79
48894;BMP280;34710;35.798;139.446;2022-11-20T03:44:39;101387.80;;;17.67
48894;BMP280;34710;35.798;139.446;2022-11-20T03:47:08;101389.64;;;17.94
48894;BMP280;34710;35.798;139.446;2022-11-20T03:49:37;101386.20;;;17.55
48894;BMP280;34710;35.798;139.446;2022-11-20T03:52:06;101384.53;;;17.65
48894;BMP280;34710;35.798;139.446;2022-11-20T03:54:35;101374.23;;;17.81
48894;BMP280;34710;35.798;139.446;2022-11-20T03:57:04;101363.50;;;17.87
48894;BMP280;34710;35.798;139.446;2022-11-20T03:59:33;101358.24;;;18.04
48894;BMP280;34710;35.798;139.446;2022-11-20T04:02:02;101355.54;;;18.08
48894;BMP280;34710;35.798;139.446;2022-11-20T04:04:34;101355.04;;;18.11
48894;BMP280;34710;35.798;139.446;2022-11-20T04:07:03;101341.31;;;18.12
48894;BMP280;34710;35.798;139.446;2022-11-20T04:09:33;101324.72;;;18.32
48894;BMP280;34710;35.798;139.446;2022-11-20T04:12:02;101319.55;;;18.19
48894;BMP280;34710;35.798;139.446;2022-11-20T04:14:31;101326.07;;;18.28
48894;BMP280;34710;35.798;139.446;2022-11-20T04:17:00;101331.28;;;18.45
48894;BMP280;34710;35.798;139.446;2022-11-20T04:19:29;101330.84;;;18.36
48894;BMP280;34710;35.798;139.446;2022-11-20T04:21:59;101326.51;;;18.37
48894;BMP280;34710;35.798;139.446;2022-11-20T04:24:27;101330.87;;;18.45
48894;BMP280;34710;35.798;139.446;2022-11-20T04:26:56;101342.29;;;18.36
48894;BMP280;34710;35.798;139.446;2022-11-20T04:29:26;101346.18;;;18.55
48894;BMP280;34710;35.798;139.446;2022-11-20T04:31:55;101333.90;;;17.95
48894;BMP280;34710;35.798;139.446;2022-11-20T04:34:24;101321.75;;;17.95
48894;BMP280;34710;35.798;139.446;2022-11-20T04:36:53;101320.55;;;18.04
48894;BMP280;34710;35.798;139.446;2022-11-20T04:39:22;101322.13;;;18.08
48894;BMP280;34710;35.798;139.446;2022-11-20T04:41:51;101327.79;;;18.02
48894;BMP280;34710;35.798;139.446;2022-11-20T04:44:20;101328.71;;;17.97
48894;BMP280;34710;35.798;139.446;2022-11-20T04:46:50;101324.86;;;17.87
48894;BMP280;34710;35.798;139.446;2022-11-20T04:49:19;101319.19;;;17.97
48894;BMP280;34710;35.798;139.446;2022-11-20T04:51:48;101320.23;;;18.02
48894;BMP280;34710;35.798;139.446;2022-11-20T04:54:17;101326.28;;;17.88
48894;BMP280;34710;35.798;139.446;2022-11-20T04:56:47;101332.16;;;18.14
48894;BMP280;34710;35.798;139.446;2022-11-20T04:59:17;101334.75;;;18.20
48894;BMP280;34710;35.798;139.446;2022-11-20T05:01:45;101343.23;;;18.28
48894;BMP280;34710;35.798;139.446;2022-11-20T05:04:14;101346.78;;;18.32
48894;BMP280;34710;35.798;139.446;2022-11-20T05:06:43;101344.87;;;17.71
48894;BMP280;34710;35.798;139.446;2022-11-20T05:09:12;101348.61;;;17.94
48894;BMP280;34710;35.798;139.446;2022-11-20T05:11:42;101345.34;;;18.02
48894;BMP280;34710;35.798;139.446;2022-11-20T05:14:11;101340.05;;;18.33
48894;BMP280;34710;35.798;139.446;2022-11-20T05:16:39;101336.94;;;18.09
48894;BMP280;34710;35.798;139.446;2022-11-20T05:19:08;101336.01;;;17.46
48894;BMP280;34710;35.798;139.446;2022-11-20T05:21:37;101333.49;;;17.77
48894;BMP280;34710;35.798;139.446;2022-11-20T05:24:06;101323.90;;;17.61
48894;BMP280;34710;35.798;139.446;2022-11-20T05:26:35;101312.25;;;17.72
48894;BMP280;34710;35.798;139.446;2022-11-20T05:29:04;101306.71;;;17.67
48894;BMP280;34710;35.798;139.446;2022-11-20T05:31:33;101306.52;;;17.91
48894;BMP280;34710;35.798;139.446;2022-11-20T05:34:02;101308.37;;;17.69
48894;BMP280;34710;35.798;139.446;2022-11-20T05:36:32;101313.65;;;17.67
48894;BMP280;34710;35.798;139.446;2022-11-20T05:39:01;101315.75;;;17.88
48894;BMP280;34710;35.798;139.446;2022-11-20T05:41:32;101322.88;;;17.63
48894;BMP280;34710;35.798;139.446;2022-11-20T05:44:02;101323.47;;;17.91
48894;BMP280;34710;35.798;139.446;2022-11-20T05:46:31;101326.19;;;17.70
48894;BMP280;34710;35.798;139.446;2022-11-20T05:49:00;101324.87;;;17.80
48894;BMP280;34710;35.798;139.446;2022-11-20T05:51:29;101327.83;;;17.36
48894;BMP280;34710;35.798;139.446;2022-11-20T05:53:59;101325.25;;;17.34
48894;BMP280;34710;35.798;139.446;2022-11-20T05:56:28;101328.66;;;17.61
48894;BMP280;34710;35.798;139.446;2022-11-20T05:58:57;101333.49;;;17.70
48894;BMP280;34710;35.798;139.446;2022-11-20T06:01:26;101340.88;;;17.56
48894;BMP280;34710;35.798;139.446;2022-11-20T06:03:55;101346.14;;;17.36
48894;BMP280;34710;35.798;139.446;2022-11-20T06:06:24;101352.41;;;17.47
48894;BMP280;34710;35.798;139.446;2022-11-20T06:08:54;101355.12;;;17.21
48894;BMP280;34710;35.798;139.446;2022-11-20T06:11:24;101349.34;;;17.14
48894;BMP280;34710;35.798;139.446;2022-11-20T06:13:53;101344.37;;;17.17
48894;BMP280;34710;35.798;139.446;2022-11-20T06:16:22;101348.20;;;16.89
48894;BMP280;34710;35.798;139.446;2022-11-20T06:18:52;101343.86;;;16.80
48894;BMP280;34710;35.798;139.446;2022-11-20T06:21:21;101334.38;;;16.88
48894;BMP280;34710;35.798;139.446;2022-11-20T06:23:52;101330.80;;;17.02
48894;BMP280;34710;35.798;139.446;2022-11-20T06:26:22;101327.69;;;16.98
48894;BMP280;34710;35.798;139.446;2022-11-20T06:28:52;101327.67;;;16.94
48894;BMP280;34710;35.798;139.446;2022-11-20T06:31:23;101329.66;;;17.04
48894;BMP280;34710;35.798;139.446;2022-11-20T06:33:55;101334.56;;;17.04
48894;BMP280;34710;35.798;139.446;2022-11-20T06:36:24;101337.74;;;16.97
48894;BMP280;34710;35.798;139.446;2022-11-20T06:38:53;101344.18;;;16.55
48894;BMP280;34710;35.798;139.446;2022-11-20T06:41:23;101346.02;;;16.52
48894;BMP280;34710;35.798;139.446;2022-11-20T06:43:52;101335.97;;;16.64
48894;BMP280;34710;35.798;139.446;2022-11-20T06:46:22;101338.44;;;16.83
48894;BMP280;34710;35.798;139.446;2022-11-20T06:48:51;101338.68;;;16.32
48894;BMP280;34710;35.798;139.446;2022-11-20T06:51:21;101338.39;;;16.40
48894;BMP280;34710;35.798;139.446;2022-11-20T06:53:49;101341.65;;;16.36
48894;BMP280;34710;35.798;139.446;2022-11-20T06:56:19;101338.29;;;16.35
48894;BMP280;34710;35.798;139.446;2022-11-20T06:58:48;101337.93;;;16.05
48894;BMP280;34710;35.798;139.446;2022-11-20T07:01:17;101331.99;;;16.02
48894;BMP280;34710;35.798;139.446;2022-11-20T07:03:49;101328.65;;;16.22
48894;BMP280;34710;35.798;139.446;2022-11-20T07:06:18;101326.08;;;16.45
48894;BMP280;34710;35.798;139.446;2022-11-20T07:08:47;101322.62;;;16.21
48894;BMP280;34710;35.798;139.446;2022-11-20T07:11:18;101320.11;;;16.15
48894;BMP280;34710;35.798;139.446;2022-11-20T07:13:48;101315.80;;;16.05
48894;BMP280;34710;35.798;139.446;2022-11-20T07:16:17;101315.93;;;16.01
48894;BMP280;34710;35.798;139.446;2022-11-20T07:18:46;101315.07;;;15.61
48894;BMP280;34710;35.798;139.446;2022-11-20T07:21:15;101311.99;;;15.74
48894;BMP280;34710;35.798;139.446;2022-11-20T07:23:45;101313.21;;;15.70
48894;BMP280;34710;35.798;139.446;2022-11-20T07:26:13;101313.75;;;15.72
48894;BMP280;34710;35.798;139.446;2022-11-20T07:28:45;101314.24;;;15.94
48894;BMP280;34710;35.798;139.446;2022-11-20T07:31:14;101322.35;;;15.42
48894;BMP280;34710;35.798;139.446;2022-11-20T07:33:43;101328.74;;;15.48
48894;BMP280;34710;35.798;139.446;2022-11-20T07:36:12;101331.78;;;15.41
48894;BMP280;34710;35.798;139.446;2022-11-20T07:38:41;101331.18;;;15.40
48894;BMP280;34710;35.798;139.446;2022-11-20T07:41:10;101331.45;;;15.34
48894;BMP280;34710;35.798;139.446;2022-11-20T07:43:40;101334.84;;;15.32
48894;BMP280;34710;35.798;139.446;2022-11-20T07:46:08;101339.28;;;15.34
48894;BMP280;34710;35.798;139.446;2022-11-20T07:48:37;101337.91;;;15.54
48894;BMP280;34710;35.798;139.446;2022-11-20T07:51:07;101334.40;;;15.28
48894;BMP280;34710;35.798;139.446;2022-11-20T07:53:36;101331.06;;;15.48
48894;BMP280;34710;35.798;139.446;2022-11-20T07:56:06;101331.53;;;15.31
48894;BMP280;34710;35.798;139.446;2022-11-20T07:58:35;101332.09;;;15.26
48894;BMP280;34710;35.798;139.446;2022-11-20T08:01:06;101336.37;;;14.85
48894;BMP280;34710;35.798;139.446;2022-11-20T08:03:36;101334.90;;;15.13
48894;BMP280;34710;35.798;139.446;2022-11-20T08:06:06;101338.68;;;15.07
48894;BMP280;34710;35.798;139.446;2022-11-20T08:08:35;101341.66;;;15.20
48894;BMP280;34710;35.798;139.446;2022-11-20T08:11:04;101343.72;;;15.22
48894;BMP280;34710;35.798;139.446;2022-11-20T08:13:33;101344.59;;;15.41
48894;BMP280;34710;35.798;139.446;2022-11-20T08:16:02;101349.68;;;15.33
48894;BMP280;34710;35.798;139.446;2022-11-20T08:18:31;101352.38;;;15.38
48894;BMP280;34710;35.798;139.446;2022-11-20T08:21:03;101355.98;;;15.28
48894;BMP280;34710;35.798;139.446;2022-11-20T08:23:33;101364.24;;;14.88
48894;BMP280;34710;35.798;139.446;2022-11-20T08:26:02;101367.10;;;15.08
48894;BMP280;34710;35.798;139.446;2022-11-20T08:28:31;101368.01;;;15.38
48894;BMP280;34710;35.798;139.446;2022-11-20T08:31:02;101367.91;;;15.17
48894;BMP280;34710;35.798;139.446;2022-11-20T08:33:31;101371.19;;;15.23
48894;BMP280;34710;35.798;139.446;2022-11-20T08:36:02;101372.17;;;14.98
48894;BMP280;34710;35.798;139.446;2022-11-20T08:38:31;101376.64;;;15.04
48894;BMP280;34710;35.798;139.446;2022-11-20T08:41:02;101375.71;;;15.35
48894;BMP280;34710;35.798;139.446;2022-11-20T08:43:32;101374.21;;;15.44
48894;BMP280;34710;35.798;139.446;2022-11-20T08:46:01;101375.02;;;15.41
48894;BMP280;34710;35.798;139.446;2022-11-20T08:48:30;101375.00;;;15.47
48894;BMP280;34710;35.798;139.446;2022-11-20T08:51:00;101373.85;;;15.22
48894;BMP280;34710;35.798;139.446;2022-11-20T08:53:29;101375.07;;;15.22
48894;BMP280;34710;35.798;139.446;2022-11-20T08:55:58;101377.59;;;15.08
48894;BMP280;34710;35.798;139.446;2022-11-20T08:58:27;101379.75;;;15.40
48894;BMP280;34710;35.798;139.446;2022-11-20T09:00:56;101383.76;;;15.25
48894;BMP280;34710;35.798;139.446;2022-11-20T09:03:25;101383.51;;;15.26
48894;BMP280;34710;35.798;139.446;2022-11-20T09:05:58;101391.28;;;15.37
48894;BMP280;34710;35.798;139.446;2022-11-20T09:08:29;101392.06;;;15.20
48894;BMP280;34710;35.798;139.446;2022-11-20T09:10:59;101380.23;;;15.22
48894;BMP280;34710;35.798;139.446;2022-11-20T09:13:28;101380.57;;;15.49
48894;BMP280;34710;35.798;139.446;2022-11-20T09:15:59;101384.53;;;15.32
48894;BMP280;34710;35.798;139.446;2022-11-20T09:18:29;101386.72;;;15.53
48894;BMP280;34710;35.798;139.446;2022-11-20T09:20:59;101385.33;;;15.29
48894;BMP280;34710;35.798;139.446;2022-11-20T09:23:33;101379.28;;;15.40
48894;BMP280;34710;35.798;139.446;2022-11-20T09:26:04;101376.78;;;15.29
48894;BMP280;34710;35.798;139.446;2022-11-20T09:28:34;101374.74;;;15.09
48894;BMP280;34710;35.798;139.446;2022-11-20T09:31:07;101376.57;;;14.98
48894;BMP280;34710;35.798;139.446;2022-11-20T09:33:36;101374.91;;;14.99
48894;BMP280;34710;35.798;139.446;2022-11-20T09:36:05;101370.13;;;14.71
48894;BMP280;34710;35.798;139.446;2022-11-20T09:38:34;101365.42;;;14.78
48894;BMP280;34710;35.798;139.446;2022-11-20T09:41:19;101362.57;;;14.63
48894;BMP280;34710;35.798;139.446;2022-11-20T09:44:02;101362.33;;;14.33
48894;BMP280;34710;35.798;139.446;2022-11-20T09:46:39;101363.93;;;14.38
48894;BMP280;34710;35.798;139.446;2022-11-20T09:49:22;101359.00;;;14.57
48894;BMP280;34710;35.798;139.446;2022-11-20T09:51:58;101358.85;;;15.16
48894;BMP280;34710;35.798;139.446;2022-11-20T09:54:31;101358.20;;;14.59
48894;BMP280;34710;35.798;139.446;2022-11-20T09:57:03;101357.78;;;14.75
48894;BMP280;34710;35.798;139.446;2022-11-20T09:59:37;101355.66;;;14.51
48894;BMP280;34710;35.798;139.446;2022-11-20T10:02:16;101354.73;;;14.62
48894;BMP280;34710;35.798;139.446;2022-11-20T10:04:53;101355.96;;;14.53
48894;BMP280;34710;35.798;139.446;2022-11-20T10:07:30;101355.75;;;14.87
48894;BMP280;34710;35.798;139.446;2022-11-20T10:10:01;101358.34;;;14.19
48894;BMP280;34710;35.798;139.446;2022-11-20T10:12:37;101355.90;;;14.68
48894;BMP280;34710;35.798;139.446;2022-11-20T10:15:21;101352.49;;;14.46
48894;BMP280;34710;35.798;139.446;2022-11-20T10:18:04;101353.59;;;14.35
48894;BMP280;34710;35.798;139.446;2022-11-20T10:20:45;101351.24;;;14.74
48894;BMP280;34710;35.798;139.446;2022-11-20T10:23:33;101349.98;;;14.19
48894;BMP280;34710;35.798;139.446;2022-11-20T10:26:20;101347.74;;;14.35
48894;BMP280;34710;35.798;139.446;2022-11-20T10:29:02;101346.47;;;14.17
48894;BMP280;34710;35.798;139.446;2022-11-20T10:31:36;101345.64;;;14.29
48894;BMP280;34710;35.798;139.446;2022-11-20T10:34:12;101344.24;;;14.24
48894;BMP280;34710;35.798;139.446;2022-11-20T10:36:49;101342.35;;;14.30
48894;BMP280;34710;35.798;139.446;2022-11-20T10:39:28;101333.76;;;14.48
48894;BMP280;34710;35.798;139.446;2022-11-20T10:42:00;101333.89;;;14.37
48894;BMP280;34710;35.798;139.446;2022-11-20T10:44:31;101327.56;;;14.40
48894;BMP280;34710;35.798;139.446;2022-11-20T10:47:00;101329.05;;;14.34
48894;BMP280;34710;35.798;139.446;2022-11-20T10:49:29;101329.57;;;14.86
48894;BMP280;34710;35.798;139.446;2022-11-20T10:52:06;101326.30;;;14.50
48894;BMP280;34710;35.798;139.446;2022-11-20T10:54:43;101329.71;;;14.69
48894;BMP280;34710;35.798;139.446;2022-11-20T10:57:25;101336.26;;;14.38
48894;BMP280;34710;35.798;139.446;2022-11-20T11:00:06;101337.14;;;14.65
48894;BMP280;34710;35.798;139.446;2022-11-20T11:02:43;101333.86;;;14.39
48894;BMP280;34710;35.798;139.446;2022-11-20T11:05:31;101330.37;;;14.28
48894;BMP280;34710;35.798;139.446;2022-11-20T11:08:02;101329.12;;;14.16
48894;BMP280;34710;35.798;139.446;2022-11-20T11:10:39;101330.57;;;14.25
48894;BMP280;34710;35.798;139.446;2022-11-20T11:13:21;101334.44;;;14.38
48894;BMP280;34710;35.798;139.446;2022-11-20T11:15:51;101337.82;;;14.71
48894;BMP280;34710;35.798;139.446;2022-11-20T11:18:29;101337.90;;;14.35
48894;BMP280;34710;35.798;139.446;2022-11-20T11:21:02;101336.76;;;14.38
48894;BMP280;34710;35.798;139.446;2022-11-20T11:23:34;101329.31;;;14.50
48894;BMP280;34710;35.798;139.446;2022-11-20T11:26:05;101330.57;;;14.56
48894;BMP280;34710;35.798;139.446;2022-11-20T11:28:34;101328.36;;;14.73
48894;BMP280;34710;35.798;139.446;2022-11-20T11:31:04;101320.87;;;14.82
48894;BMP280;34710;35.798;139.446;2022-11-20T11:33:33;101312.47;;;14.99
48894;BMP280;34710;35.798;139.446;2022-11-20T11:36:05;101306.56;;;15.13
48894;BMP280;34710;35.798;139.446;2022-11-20T11:38:45;101307.66;;;15.03
48894;BMP280;34710;35.798;139.446;2022-11-20T11:41:22;101307.03;;;15.06
48894;BMP280;34710;35.798;139.446;2022-11-20T11:43:54;101310.40;;;15.09
48894;BMP280;34710;35.798;139.446;2022-11-20T11:46:31;101316.65;;;15.32
48894;BMP280;34710;35.798;139.446;2022-11-20T11:49:11;101321.97;;;15.01
48894;BMP280;34710;35.798;139.446;2022-11-20T11:51:59;101320.60;;;14.69
48894;BMP280;34710;35.798;139.446;2022-11-20T11:54:35;101323.49;;;15.13
48894;BMP280;34710;35.798;139.446;2022-11-20T11:57:17;101327.29;;;15.00
48894;BMP280;34710;35.798;139.446;2022-11-20T11:59:57;101332.53;;;15.06
48894;BMP280;34710;35.798;139.446;2022-11-20T12:02:35;101334.96;;;15.09
48894;BMP280;34710;35.798;139.446;2022-11-20T12:05:13;101333.22;;;15.00
48894;BMP280;34710;35.798;139.446;2022-11-20T12:07:49;101333.05;;;15.01
48894;BMP280;34710;35.798;139.446;2022-11-20T12:10:23;101331.33;;;15.26
48894;BMP280;34710;35.798;139.446;2022-11-20T12:13:04;101328.81;;;15.01
48894;BMP280;34710;35.798;139.446;2022-11-20T12:15:40;101319.13;;;15.11
48894;BMP280;34710;35.798;139.446;2022-11-20T12:18:17;101304.15;;;15.20
48894;BMP280;34710;35.798;139.446;2022-11-20T12:20:59;101299.72;;;15.15
48894;BMP280;34710;35.798;139.446;2022-11-20T12:23:38;101288.66;;;15.37
48894;BMP280;34710;35.798;139.446;2022-11-20T12:29:06;101273.00;;;14.94
48894;BMP280;34710;35.798;139.446;2022-11-20T12:31:55;101270.53;;;15.21
48894;BMP280;34710;35.798;139.446;2022-11-20T12:34:36;101270.30;;;15.27
48894;BMP280;34710;35.798;139.446;2022-11-20T12:37:19;101265.68;;;15.17
48894;BMP280;34710;35.798;139.446;2022-11-20T12:39:51;101263.07;;;15.43
48894;BMP280;34710;35.798;139.446;2022-11-20T12:42:38;101263.66;;;15.23
48894;BMP280;34710;35.798;139.446;2022-11-20T12:45:24;101268.43;;;15.05
48894;BMP280;34710;35.798;139.446;2022-11-20T12:48:13;101270.20;;;15.31
48894;BMP280;34710;35.798;139.446;2022-11-20T12:50:54;101270.41;;;15.17
48894;BMP280;34710;35.798;139.446;2022-11-20T12:53:36;101267.71;;;15.12
48894;BMP280;34710;35.798;139.446;2022-11-20T12:56:18;101263.25;;;15.13
48894;BMP280;34710;35.798;139.446;2022-11-20T12:59:00;101257.11;;;15.02
48894;BMP280;34710;35.798;139.446;2022-11-20T13:01:40;101253.23;;;15.59
48894;BMP280;34710;35.798;139.446;2022-11-20T13:04:46;101249.84;;;15.43
48894;BMP280;34710;35.798;139.446;2022-11-20T13:07:18;101244.53;;;15.12
48894;BMP280;34710;35.798;139.446;2022-11-20T13:09:49;101237.61;;;15.65
48894;BMP280;34710;35.798;139.446;2022-11-20T13:12:25;101236.17;;;15.23
48894;BMP280;34710;35.798;139.446;2022-11-20T13:15:05;101236.50;;;15.40
48894;BMP280;34710;35.798;139.446;2022-11-20T13:17:41;101235.42;;;15.31
48894;BMP280;34710;35.798;139.446;2022-11-20T13:20:16;101231.86;;;14.84
48894;BMP280;34710;35.798;139.446;2022-11-20T13:22:47;101229.31;;;15.22
48894;BMP280;34710;35.798;139.446;2022-11-20T13:25:33;101229.90;;;15.13
48894;BMP280;34710;35.798;139.446;2022-11-20T13:30:54;101227.02;;;15.37
48894;BMP280;34710;35.798;139.446;2022-11-20T13:33:28;101220.64;;;15.15
48894;BMP280;34710;35.798;139.446;2022-11-20T13:36:01;101217.28;;;15.48
48894;BMP280;34710;35.798;139.446;2022-11-20T13:38:43;101214.84;;;15.05
48894;BMP280;34710;35.798;139.446;2022-11-20T13:41:22;101212.61;;;15.18
48894;BMP280;34710;35.798;139.446;2022-11-20T13:43:53;101212.88;;;15.13
48894;BMP280;34710;35.798;139.446;2022-11-20T13:46:23;101210.06;;;15.16
48894;BMP280;34710;35.798;139.446;2022-11-20T13:49:08;101206.64;;;15.24
48894;BMP280;34710;35.798;139.446;2022-11-20T13:51:42;101208.18;;;15.21
48894;BMP280;34710;35.798;139.446;2022-11-20T13:54:36;101204.89;;;15.55
48894;BMP280;34710;35.798;139.446;2022-11-20T13:57:26;101189.41;;;15.15
48894;BMP280;34710;35.798;139.446;2022-11-20T14:00:09;101184.47;;;15.13
48894;BMP280;34710;35.798;139.446;2022-11-20T14:02:40;101182.14;;;15.07
48894;BMP280;34710;35.798;139.446;2022-11-20T14:05:20;101176.39;;;15.22